createdAt,value
2023-07-22T00:00:14.904Z,15.57
2023-07-22T00:02:42.995Z,11.73
2023-07-22T00:05:11.206Z,12.17
2023-07-22T00:07:38.804Z,10.63
2023-07-22T00:10:06.513Z,11.23
2023-07-22T00:12:35.108Z,12.70
2023-07-22T00:15:02.724Z,11.33
2023-07-22T00:17:30.295Z,10.67
2023-07-22T00:19:57.844Z,12.23
2023-07-22T00:22:25.380Z,10.00
2023-07-22T00:24:53.044Z,13.23
2023-07-22T00:27:20.618Z,12.83
2023-07-22T00:29:48.229Z,12.47
2023-07-22T00:32:15.751Z,10.23
2023-07-22T00:34:43.492Z,14.57
2023-07-22T00:37:11.009Z,12.63
2023-07-22T00:39:38.578Z,11.43
2023-07-22T00:42:06.310Z,14.90
2023-07-22T00:44:33.898Z,14.37
2023-07-22T00:47:01.762Z,14.57
2023-07-22T00:49:30.146Z,13.17
2023-07-22T00:52:00.359Z,11.43
2023-07-22T00:54:28.035Z,12.40
2023-07-22T00:56:56.189Z,12.47
2023-07-22T00:59:23.837Z,11.40
2023-07-22T01:01:51.475Z,12.30
2023-07-22T01:04:20.929Z,11.33
2023-07-22T01:06:49.998Z,13.07
2023-07-22T01:09:17.594Z,16.87
2023-07-22T01:11:45.197Z,12.57
2023-07-22T01:14:12.756Z,12.83
2023-07-22T01:16:40.485Z,12.00
2023-07-22T01:19:08.432Z,13.57
2023-07-22T01:21:36.156Z,12.23
2023-07-22T01:24:03.819Z,13.33
2023-07-22T01:26:31.466Z,12.67
2023-07-22T01:29:05.645Z,14.30
2023-07-22T01:31:35.592Z,12.00
2023-07-22T01:34:03.486Z,10.43
2023-07-22T01:36:31.161Z,12.23
2023-07-22T01:38:58.778Z,12.37
2023-07-22T01:41:26.327Z,12.60
2023-07-22T01:43:53.943Z,14.77
2023-07-22T01:46:21.535Z,12.53
2023-07-22T01:48:49.126Z,11.87
2023-07-22T01:51:16.656Z,13.13
2023-07-22T01:53:44.333Z,11.13
2023-07-22T01:56:11.895Z,11.90
2023-07-22T01:58:39.494Z,12.60
2023-07-22T02:01:07.009Z,17.97
2023-07-22T02:03:34.681Z,13.57
2023-07-22T02:06:05.696Z,12.33
2023-07-22T02:08:33.318Z,15.03
2023-07-22T02:11:04.468Z,19.27
2023-07-22T02:13:32.651Z,15.20
2023-07-22T02:16:00.521Z,13.07
2023-07-22T02:18:30.669Z,15.47
2023-07-22T02:20:58.684Z,16.07
2023-07-22T02:23:26.506Z,13.83
2023-07-22T02:25:55.134Z,14.67
2023-07-22T02:28:23.026Z,18.43
2023-07-22T02:30:51.570Z,16.43
2023-07-22T02:33:19.127Z,15.23
2023-07-22T02:35:46.749Z,14.70
2023-07-22T02:38:14.348Z,16.80
2023-07-22T02:40:42.345Z,14.90
2023-07-22T02:43:09.901Z,18.33
2023-07-22T02:45:38.189Z,14.23
2023-07-22T02:48:06.094Z,15.57
2023-07-22T02:50:33.751Z,20.70
2023-07-22T02:53:01.271Z,15.97
2023-07-22T02:55:28.898Z,14.27
2023-07-22T02:57:56.423Z,17.50
2023-07-22T03:00:24.030Z,14.13
2023-07-22T03:02:52.485Z,12.27
2023-07-22T03:05:20.573Z,14.07
2023-07-22T03:07:48.273Z,12.80
2023-07-22T03:10:15.934Z,12.47
2023-07-22T03:12:44.747Z,13.77
2023-07-22T03:15:12.397Z,11.83
2023-07-22T03:17:40.614Z,11.37
2023-07-22T03:20:08.390Z,9.93
2023-07-22T03:22:35.922Z,11.33
2023-07-22T03:25:03.576Z,12.03
2023-07-22T03:27:31.115Z,13.43
2023-07-22T03:29:58.756Z,13.00
2023-07-22T03:32:26.316Z,9.70
2023-07-22T03:34:53.889Z,13.20
2023-07-22T03:37:21.444Z,11.00
2023-07-22T03:39:49.052Z,12.03
2023-07-22T03:42:16.595Z,12.07
2023-07-22T03:44:44.213Z,13.20
2023-07-22T03:47:11.786Z,10.53
2023-07-22T03:49:39.388Z,12.10
2023-07-22T03:52:07.256Z,13.07
2023-07-22T03:54:34.839Z,9.53
2023-07-22T03:57:02.419Z,10.17
2023-07-22T03:59:30.130Z,12.07
2023-07-22T04:01:57.694Z,12.40
2023-07-22T04:04:25.396Z,11.90
2023-07-22T04:06:52.905Z,12.30
2023-07-22T04:09:20.610Z,11.93
2023-07-22T04:11:48.235Z,12.37
2023-07-22T04:14:15.857Z,15.60
2023-07-22T04:16:43.449Z,12.13
2023-07-22T04:19:12.515Z,13.70
2023-07-22T04:21:40.030Z,12.90
2023-07-22T04:24:07.782Z,13.27
2023-07-22T04:26:35.381Z,14.73
2023-07-22T04:29:02.973Z,12.23
2023-07-22T04:31:30.619Z,15.93
2023-07-22T04:33:59.406Z,13.43
2023-07-22T04:36:27.149Z,11.20
2023-07-22T04:38:55.001Z,11.10
2023-07-22T04:41:22.528Z,12.67
2023-07-22T04:43:50.088Z,12.20
2023-07-22T04:46:17.998Z,13.67
2023-07-22T04:48:45.562Z,14.40
2023-07-22T04:51:13.104Z,12.70
2023-07-22T04:53:40.734Z,12.53
2023-07-22T04:56:09.882Z,15.83
2023-07-22T04:58:38.314Z,17.83
2023-07-22T05:01:05.953Z,11.80
2023-07-22T05:03:36.683Z,16.10
2023-07-22T05:06:04.340Z,16.30
2023-07-22T05:08:31.931Z,11.73
2023-07-22T05:10:59.516Z,10.63
2023-07-22T05:13:27.108Z,13.50
2023-07-22T05:15:54.671Z,11.93
2023-07-22T05:18:22.229Z,11.57
2023-07-22T05:20:49.866Z,11.27
2023-07-22T05:23:17.409Z,9.97
2023-07-22T05:25:45.067Z,11.13
2023-07-22T05:28:12.585Z,12.97
2023-07-22T05:30:40.229Z,10.57
2023-07-22T05:33:08.210Z,10.40
2023-07-22T05:35:36.015Z,9.07
2023-07-22T05:38:04.288Z,9.30
2023-07-22T05:40:32.290Z,10.53
2023-07-22T05:43:02.893Z,10.03
2023-07-22T05:45:39.942Z,10.47
2023-07-22T05:48:11.514Z,8.80
2023-07-22T05:50:39.749Z,11.93
2023-07-22T05:53:07.525Z,16.07
2023-07-22T05:55:35.217Z,10.37
2023-07-22T05:58:04.388Z,13.03
2023-07-22T06:00:32.059Z,9.77
2023-07-22T06:02:59.843Z,11.47
2023-07-22T06:05:27.576Z,7.83
2023-07-22T06:07:55.176Z,9.37
2023-07-22T06:10:22.780Z,9.17
2023-07-22T06:12:50.345Z,10.60
2023-07-22T06:15:18.149Z,12.07
2023-07-22T06:17:45.940Z,9.80
2023-07-22T06:20:13.830Z,11.80
2023-07-22T06:22:41.725Z,9.43
2023-07-22T06:25:09.800Z,10.90
2023-07-22T06:27:37.539Z,11.97
2023-07-22T06:30:05.345Z,8.90
2023-07-22T06:32:32.940Z,14.73
2023-07-22T06:35:00.717Z,12.00
2023-07-22T06:37:28.259Z,10.73
2023-07-22T06:39:55.869Z,9.93
2023-07-22T06:42:23.383Z,10.80
2023-07-22T06:44:51.035Z,9.27
2023-07-22T06:47:18.603Z,19.33
2023-07-22T06:49:47.520Z,19.00
2023-07-22T06:52:15.300Z,12.47
2023-07-22T06:54:42.992Z,8.73
2023-07-22T06:57:10.732Z,12.27
2023-07-22T06:59:38.405Z,12.43
2023-07-22T07:02:06.201Z,10.60
2023-07-22T07:04:34.065Z,11.30
2023-07-22T07:07:01.773Z,11.97
2023-07-22T07:09:29.340Z,11.80
2023-07-22T07:11:56.946Z,10.53
2023-07-22T07:14:24.927Z,12.23
2023-07-22T07:16:52.523Z,10.27
2023-07-22T07:19:20.719Z,10.40
2023-07-22T07:21:48.462Z,11.97
2023-07-22T07:24:18.971Z,11.73
2023-07-22T07:26:46.658Z,14.63
2023-07-22T07:29:17.884Z,16.50
2023-07-22T07:31:56.196Z,13.27
2023-07-22T07:34:23.781Z,9.73
2023-07-22T07:36:51.343Z,17.13
2023-07-22T07:39:18.851Z,11.63
2023-07-22T07:41:46.456Z,17.83
2023-07-22T07:44:14.130Z,17.43
2023-07-22T07:46:41.690Z,13.97
2023-07-22T07:49:09.226Z,15.30
2023-07-22T07:51:36.815Z,11.97
2023-07-22T07:54:04.353Z,11.73
2023-07-22T07:56:33.341Z,9.93
2023-07-22T07:59:00.853Z,13.53
2023-07-22T08:01:28.501Z,14.00
2023-07-22T08:03:56.158Z,11.83
2023-07-22T08:06:24.935Z,11.70
2023-07-22T08:08:52.667Z,8.73
2023-07-22T08:11:20.286Z,9.13
2023-07-22T08:13:47.850Z,7.67
2023-07-22T08:16:15.752Z,8.93
2023-07-22T08:18:43.334Z,9.63
2023-07-22T08:21:11.264Z,8.67
2023-07-22T08:23:38.843Z,9.50
2023-07-22T08:26:07.374Z,7.40
2023-07-22T08:28:35.856Z,9.10
2023-07-22T08:31:03.637Z,7.37
2023-07-22T08:33:41.010Z,6.97
2023-07-22T08:36:10.077Z,7.63
2023-07-22T08:38:38.266Z,10.53
2023-07-22T08:41:07.155Z,8.60
2023-07-22T08:43:36.268Z,7.97
2023-07-22T08:46:04.071Z,5.60
2023-07-22T08:48:32.410Z,7.13
2023-07-22T08:51:03.083Z,9.33
2023-07-22T08:53:31.485Z,7.60
2023-07-22T08:55:59.248Z,8.27
2023-07-22T08:58:27.367Z,5.67
2023-07-22T09:00:55.825Z,7.17
2023-07-22T09:03:23.703Z,7.00
2023-07-22T09:05:51.426Z,7.07
2023-07-22T09:08:19.128Z,7.27
2023-07-22T09:10:47.209Z,10.30
2023-07-22T09:13:15.391Z,6.70
2023-07-22T09:15:43.156Z,5.03
2023-07-22T09:18:10.839Z,8.40
2023-07-22T09:20:38.584Z,6.30
2023-07-22T09:23:13.929Z,6.43
2023-07-22T09:25:43.207Z,6.23
2023-07-22T09:28:11.375Z,6.57
2023-07-22T09:30:40.097Z,5.43
2023-07-22T09:33:08.869Z,6.07
2023-07-22T09:35:42.873Z,5.83
2023-07-22T09:38:10.622Z,5.50
2023-07-22T09:40:38.168Z,6.17
2023-07-22T09:43:05.842Z,4.40
2023-07-22T09:45:33.394Z,4.50
2023-07-22T09:48:01.140Z,4.93
2023-07-22T09:50:29.025Z,5.43
2023-07-22T09:52:57.300Z,5.30
2023-07-22T09:55:25.913Z,3.73
2023-07-22T09:57:59.721Z,5.87
2023-07-22T10:00:30.028Z,3.80
2023-07-22T10:02:58.679Z,7.10
2023-07-22T10:05:27.448Z,4.83
2023-07-22T10:07:56.162Z,4.40
2023-07-22T10:10:44.673Z,3.30
2023-07-22T10:13:12.440Z,4.27
2023-07-22T10:15:40.645Z,6.23
2023-07-22T10:18:09.438Z,3.63
2023-07-22T10:20:40.428Z,4.37
2023-07-22T10:23:08.892Z,4.67
2023-07-22T10:25:38.859Z,4.17
2023-07-22T10:28:13.610Z,3.07
2023-07-22T10:30:42.043Z,3.53
2023-07-22T10:33:09.843Z,5.23
2023-07-22T10:35:42.392Z,5.17
2023-07-22T10:38:14.087Z,2.97
2023-07-22T10:40:47.680Z,2.60
2023-07-22T10:43:19.322Z,3.10
2023-07-22T10:45:56.251Z,4.13
2023-07-22T10:48:27.251Z,5.37
2023-07-22T10:51:00.114Z,4.50
2023-07-22T10:53:27.709Z,3.83
2023-07-22T10:56:14.127Z,5.73
2023-07-22T10:58:47.860Z,5.07
2023-07-22T11:01:24.703Z,4.03
2023-07-22T11:04:10.893Z,6.03
2023-07-22T11:06:40.052Z,6.63
2023-07-22T11:09:07.970Z,4.33
2023-07-22T11:11:39.763Z,5.37
2023-07-22T11:14:17.065Z,4.97
2023-07-22T11:16:46.288Z,4.60
2023-07-22T11:19:18.052Z,2.37
2023-07-22T11:21:46.186Z,2.80
2023-07-22T11:24:14.044Z,2.50
2023-07-22T11:26:42.566Z,3.50
2023-07-22T11:29:12.026Z,3.97
2023-07-22T11:31:40.763Z,2.90
2023-07-22T11:34:08.387Z,2.37
2023-07-22T11:36:35.905Z,5.37
2023-07-22T11:39:04.789Z,3.93
2023-07-22T11:41:32.384Z,2.57
2023-07-22T11:44:00.503Z,4.23
2023-07-22T11:46:28.726Z,3.43
2023-07-22T11:48:57.047Z,4.07
2023-07-22T11:51:26.408Z,4.00
2023-07-22T11:53:55.414Z,7.50
2023-07-22T11:56:23.798Z,7.10
2023-07-22T11:58:54.948Z,5.43
2023-07-22T12:01:23.213Z,4.07
2023-07-22T12:03:51.450Z,4.47
2023-07-22T12:06:19.054Z,5.67
2023-07-22T12:08:50.355Z,4.37
2023-07-22T12:11:18.824Z,3.63
2023-07-22T12:13:46.813Z,3.00
2023-07-22T12:16:14.593Z,2.80
2023-07-22T12:18:44.923Z,3.67
2023-07-22T12:21:13.074Z,2.67
2023-07-22T12:23:40.988Z,3.10
2023-07-22T12:26:08.604Z,2.87
2023-07-22T12:28:36.144Z,4.83
2023-07-22T12:31:03.769Z,5.27
2023-07-22T12:33:31.381Z,2.93
2023-07-22T12:35:58.982Z,3.57
2023-07-22T12:38:26.529Z,3.30
2023-07-22T12:40:54.188Z,3.67
2023-07-22T12:43:21.888Z,3.87
2023-07-22T12:45:49.580Z,4.17
2023-07-22T12:48:19.772Z,5.50
2023-07-22T12:50:47.806Z,6.03
2023-07-22T12:53:15.629Z,2.63
2023-07-22T12:55:43.268Z,3.33
2023-07-22T12:58:10.767Z,3.57
2023-07-22T13:00:38.361Z,5.00
2023-07-22T13:03:05.984Z,4.10
2023-07-22T13:05:33.689Z,3.77
2023-07-22T13:08:04.051Z,4.13
2023-07-22T13:10:47.665Z,3.67
2023-07-22T13:13:15.558Z,5.03
2023-07-22T13:15:44.612Z,6.50
2023-07-22T13:18:15.088Z,3.57
2023-07-22T13:20:44.493Z,3.07
2023-07-22T13:23:15.512Z,3.17
2023-07-22T13:25:47.496Z,3.20
2023-07-22T13:28:26.899Z,4.47
2023-07-22T13:30:58.290Z,4.97
2023-07-22T13:33:25.935Z,4.00
2023-07-22T13:38:38.119Z,5.17
2023-07-22T13:41:08.429Z,3.70
2023-07-22T13:43:36.601Z,3.67
2023-07-22T13:46:04.188Z,5.20
2023-07-22T13:48:31.811Z,2.77
2023-07-22T13:50:59.343Z,4.93
2023-07-22T13:53:26.952Z,2.83
2023-07-22T13:55:54.542Z,3.20
2023-07-22T13:58:23.384Z,3.40
2023-07-22T14:00:50.993Z,4.50
2023-07-22T14:03:18.697Z,8.63
2023-07-22T14:05:46.257Z,5.27
2023-07-22T14:08:13.858Z,3.07
2023-07-22T14:10:41.485Z,14.20
2023-07-22T14:13:09.200Z,3.73
2023-07-22T14:15:36.788Z,3.50
2023-07-22T14:18:04.547Z,5.43
2023-07-22T14:20:32.131Z,3.80
2023-07-22T14:22:59.763Z,3.93
2023-07-22T14:25:27.329Z,5.20
2023-07-22T14:27:54.897Z,7.27
2023-07-22T14:30:22.467Z,4.83
2023-07-22T14:32:50.083Z,3.43
2023-07-22T14:35:17.730Z,5.10
2023-07-22T14:37:45.439Z,3.00
2023-07-22T14:40:13.302Z,4.73
2023-07-22T14:42:41.991Z,4.67
2023-07-22T14:45:09.845Z,6.57
2023-07-22T14:47:37.492Z,2.73
2023-07-22T14:50:05.221Z,4.50
2023-07-22T14:52:32.811Z,5.30
2023-07-22T14:55:00.386Z,5.60
2023-07-22T14:57:28.038Z,3.67
2023-07-22T14:59:55.630Z,4.30
2023-07-22T15:02:23.214Z,9.60
2023-07-22T15:04:50.967Z,3.93
2023-07-22T15:07:18.741Z,3.57
2023-07-22T15:09:46.489Z,5.23
2023-07-22T15:12:15.765Z,4.63
2023-07-22T15:14:45.677Z,3.60
2023-07-22T15:17:13.301Z,2.70
2023-07-22T15:19:40.915Z,6.30
2023-07-22T15:22:08.464Z,1.90
2023-07-22T15:24:36.132Z,2.40
2023-07-22T15:27:03.711Z,7.00
2023-07-22T15:29:31.362Z,3.53
2023-07-22T15:31:58.956Z,4.70
2023-07-22T15:34:28.841Z,2.47
2023-07-22T15:36:56.544Z,3.43
2023-07-22T15:39:24.883Z,2.00
2023-07-22T15:41:52.821Z,2.67
2023-07-22T15:44:20.401Z,2.90
2023-07-22T15:46:47.980Z,2.57
2023-07-22T15:49:15.524Z,10.33
2023-07-22T15:51:43.173Z,4.30
2023-07-22T15:54:10.716Z,3.93
2023-07-22T15:56:38.339Z,6.87
2023-07-22T15:59:05.856Z,4.60
2023-07-22T16:01:33.539Z,4.27
2023-07-22T16:04:01.123Z,5.93
2023-07-22T16:06:33.342Z,5.97
2023-07-22T16:09:01.908Z,3.30
2023-07-22T16:11:29.712Z,4.03
2023-07-22T16:13:57.422Z,4.20
2023-07-22T16:16:25.089Z,7.03
2023-07-22T16:18:53.103Z,4.10
2023-07-22T16:21:20.892Z,5.27
2023-07-22T16:23:48.549Z,3.53
2023-07-22T16:26:16.110Z,3.87
2023-07-22T16:28:43.722Z,4.73
2023-07-22T16:31:11.498Z,5.50
2023-07-22T16:33:39.155Z,6.27
2023-07-22T16:36:06.720Z,5.53
2023-07-22T16:38:34.347Z,3.87
2023-07-22T16:41:01.887Z,5.17
2023-07-22T16:43:29.477Z,5.27
2023-07-22T16:45:57.129Z,4.17
2023-07-22T16:48:24.805Z,6.70
2023-07-22T16:50:52.297Z,5.83
2023-07-22T16:53:19.859Z,4.53
2023-07-22T16:55:47.429Z,8.33
2023-07-22T16:58:15.049Z,4.77
2023-07-22T17:00:42.633Z,3.83
2023-07-22T17:03:10.329Z,4.50
2023-07-22T17:05:38.789Z,3.33
2023-07-22T17:08:06.486Z,3.73
2023-07-22T17:10:34.224Z,4.00
2023-07-22T17:13:01.842Z,5.13
2023-07-22T17:15:29.389Z,4.63
2023-07-22T17:17:57.012Z,6.50
2023-07-22T17:20:24.813Z,4.73
2023-07-22T17:22:52.552Z,4.13
2023-07-22T17:25:20.143Z,3.30
2023-07-22T17:27:47.732Z,5.77
2023-07-22T17:30:15.294Z,6.23
2023-07-22T17:32:42.942Z,5.40
2023-07-22T17:35:10.506Z,6.33
2023-07-22T17:37:38.174Z,5.43
2023-07-22T17:40:05.925Z,8.03
2023-07-22T17:42:33.560Z,3.37
2023-07-22T17:45:01.142Z,5.27
2023-07-22T17:47:28.842Z,6.13
2023-07-22T17:49:56.631Z,6.90
2023-07-22T17:52:24.466Z,8.60
2023-07-22T17:54:52.022Z,4.70
2023-07-22T17:57:19.605Z,7.67
2023-07-22T17:59:48.521Z,8.13
2023-07-22T18:02:18.197Z,6.57
2023-07-22T18:04:46.322Z,5.00
2023-07-22T18:07:13.985Z,12.20
2023-07-22T18:09:41.526Z,8.87
2023-07-22T18:12:09.441Z,9.87
2023-07-22T18:14:37.023Z,7.80
2023-07-22T18:17:07.878Z,9.63
2023-07-22T18:19:35.531Z,4.10
2023-07-22T18:22:03.079Z,5.07
2023-07-22T18:24:30.780Z,5.03
2023-07-22T18:26:58.502Z,5.03
2023-07-22T18:29:26.151Z,9.53
2023-07-22T18:31:53.701Z,5.07
2023-07-22T18:34:21.328Z,4.57
2023-07-22T18:36:52.452Z,7.67
2023-07-22T18:39:20.098Z,6.13
2023-07-22T18:41:47.711Z,7.53
2023-07-22T18:44:15.439Z,12.73
2023-07-22T18:46:43.019Z,5.47
2023-07-22T18:49:10.673Z,10.27
2023-07-22T18:51:38.189Z,10.20
2023-07-22T18:54:05.818Z,11.57
2023-07-22T18:56:33.375Z,6.33
2023-07-22T18:59:00.983Z,8.40
2023-07-22T19:01:28.865Z,6.17
2023-07-22T19:03:56.738Z,6.57
2023-07-22T19:06:24.314Z,7.97
2023-07-22T19:08:51.994Z,12.07
2023-07-22T19:11:19.528Z,16.30
2023-07-22T19:13:47.137Z,10.83
2023-07-22T19:16:14.710Z,14.03
2023-07-22T19:18:42.388Z,13.00
2023-07-22T19:21:10.032Z,9.37
2023-07-22T19:23:37.768Z,10.33
2023-07-22T19:26:07.118Z,9.60
2023-07-22T19:28:35.324Z,6.07
2023-07-22T19:31:02.922Z,9.00
2023-07-22T19:33:30.498Z,5.77
2023-07-22T19:36:15.979Z,3.93
2023-07-22T19:38:43.603Z,6.13
2023-07-22T19:41:11.662Z,5.57
2023-07-22T19:43:41.599Z,4.77
2023-07-22T19:46:10.522Z,9.10
2023-07-22T19:48:38.090Z,7.60
2023-07-22T19:51:06.620Z,4.57
2023-07-22T19:53:34.167Z,6.07
2023-07-22T19:56:05.094Z,5.70
2023-07-22T19:58:34.861Z,5.63
2023-07-22T20:01:02.486Z,7.80
2023-07-22T20:03:30.578Z,7.47
2023-07-22T20:05:58.382Z,6.07
2023-07-22T20:08:26.008Z,13.27
2023-07-22T20:10:53.629Z,7.27
2023-07-22T20:13:23.262Z,7.67
2023-07-22T20:15:52.407Z,7.87
2023-07-22T20:18:20.077Z,7.50
2023-07-22T20:20:47.756Z,4.83
2023-07-22T20:23:15.314Z,5.90
2023-07-22T20:25:42.902Z,7.43
2023-07-22T20:28:10.504Z,8.07
2023-07-22T20:30:38.139Z,7.63
2023-07-22T20:33:05.760Z,7.60
2023-07-22T20:35:33.392Z,6.80
2023-07-22T20:38:00.954Z,6.00
2023-07-22T20:40:28.546Z,7.87
2023-07-22T20:42:56.248Z,5.87
2023-07-22T20:45:24.102Z,6.67
2023-07-22T20:47:51.799Z,5.23
2023-07-22T20:50:19.487Z,6.93
2023-07-22T20:52:47.056Z,5.27
2023-07-22T20:55:14.601Z,6.90
2023-07-22T20:57:42.169Z,3.83
2023-07-22T21:00:10.170Z,6.87
2023-07-22T21:02:37.762Z,8.20
2023-07-22T21:05:05.602Z,5.17
2023-07-22T21:07:33.146Z,5.47
2023-07-22T21:10:00.793Z,4.63
2023-07-22T21:12:28.343Z,7.87
2023-07-22T21:14:55.899Z,10.50
2023-07-22T21:17:23.745Z,6.90
2023-07-22T21:19:51.529Z,12.90
2023-07-22T21:22:19.152Z,7.67
2023-07-22T21:24:46.825Z,9.00
2023-07-22T21:27:14.540Z,5.97
2023-07-22T21:29:42.144Z,7.77
2023-07-22T21:32:09.830Z,5.13
2023-07-22T21:34:37.568Z,8.73
2023-07-22T21:37:05.256Z,6.77
2023-07-22T21:39:32.945Z,7.47
2023-07-22T21:42:00.694Z,7.13
2023-07-22T21:44:28.333Z,5.70
2023-07-22T21:46:55.947Z,5.20
2023-07-22T21:49:23.773Z,5.80
2023-07-22T21:51:51.433Z,7.10
2023-07-22T21:54:19.055Z,10.67
2023-07-22T21:56:46.718Z,5.97
2023-07-22T21:59:14.360Z,5.97
2023-07-22T22:01:42.035Z,8.40
2023-07-22T22:04:09.756Z,5.10
2023-07-22T22:06:37.341Z,5.73
2023-07-22T22:09:04.968Z,9.60
2023-07-22T22:11:32.547Z,5.33
2023-07-22T22:14:00.168Z,6.50
2023-07-22T22:16:27.800Z,5.07
2023-07-22T22:18:55.464Z,6.63
2023-07-22T22:21:23.089Z,6.53
2023-07-22T22:23:50.750Z,6.53
2023-07-22T22:26:18.359Z,5.40
2023-07-22T22:28:46.958Z,8.43
2023-07-22T22:31:14.790Z,9.00
2023-07-22T22:33:42.585Z,10.73
2023-07-22T22:36:10.413Z,9.23
2023-07-22T22:38:38.313Z,6.13
2023-07-22T22:41:06.156Z,5.03
2023-07-22T22:43:33.917Z,6.33
2023-07-22T22:46:01.650Z,7.50
2023-07-22T22:48:29.609Z,10.63
2023-07-22T22:50:57.219Z,6.40
2023-07-22T22:53:25.239Z,8.33
2023-07-22T22:55:53.177Z,7.63
2023-07-22T22:58:21.148Z,8.97
2023-07-22T23:00:49.024Z,6.60
2023-07-22T23:03:16.913Z,10.33
2023-07-22T23:05:44.618Z,7.73
2023-07-22T23:08:12.652Z,8.57
2023-07-22T23:10:46.702Z,8.40
2023-07-22T23:13:14.515Z,7.37
2023-07-22T23:15:42.224Z,6.57
2023-07-22T23:18:09.954Z,8.20
2023-07-22T23:20:37.520Z,6.80
2023-07-22T23:23:05.122Z,11.10
2023-07-22T23:25:32.757Z,7.90
2023-07-22T23:28:01.684Z,8.53
2023-07-22T23:30:35.326Z,8.20
2023-07-22T23:33:03.082Z,9.03
2023-07-22T23:35:30.730Z,8.00
2023-07-22T23:37:58.318Z,10.20
2023-07-22T23:40:25.885Z,6.50
2023-07-22T23:42:53.453Z,8.67
2023-07-22T23:45:21.068Z,11.53
2023-07-22T23:47:51.589Z,9.30
2023-07-22T23:50:19.259Z,7.17
2023-07-22T23:52:46.816Z,7.40
2023-07-22T23:55:14.379Z,5.67
2023-07-22T23:57:41.957Z,7.10
